Flight Track Log - Related Links

Times and Time Zones

All times are in EDT time to prevent confusion due to time zone crossing. See the EJA831 flight status page for this flight to view local times or setup timezone preferences in your user account.

Time Position Orientation Groundspeed Altitude Reporting Facility
EDT Latitude Longitude Course Direction KTS MPH feet Rate Location/Type
Sat 02:43:19 PM 41.7122 -71.4361 267° West 171 197 700  Level Boston Center
Sat 02:44:26 PM 41.7089 -71.5308 267° West 230 265 3,900 2,033 Climbing Boston Center
Sat 02:45:20 PM 41.7614 -71.5689 332° Northwest 259 298 4,800 2,380 Climbing Boston Center
Sat 02:46:27 PM 41.8383 -71.5622 North 277 319 8,700 1,547 Climbing Boston Center
Sat 02:47:59 PM 41.9667 -71.5000 20° North 291 335 8,900 82 Climbing KA90
Sat 02:48:53 PM 42.0333 -71.5000 360° North 284 327 8,900 50 Level KA90
Sat 02:49:59 PM 42.1167 -71.4833 North 288 331 9,000 48 Climbing KA90
Sat 02:50:59 PM 42.2000 -71.4667 North 289 333 9,000  Level KA90
Sat 02:51:53 PM 42.2667 -71.4667 360° North 288 331 9,000  Level KA90
Sat 02:52:53 PM 42.3500 -71.4500 North 292 336 9,000  Level KA90
Sat 02:53:53 PM 42.4333 -71.4333 North 292 336 9,000  Level KA90
Sat 02:54:53 PM 42.5167 -71.4167 North 290 334 9,000  Level KA90
Sat 02:55:53 PM 42.6000 -71.4167 360° North 292 336 9,000  Level KA90
Sat 02:56:53 PM 42.6833 -71.4000 North 291 335 9,000 -200 Level KA90
Sat 02:57:53 PM 42.7500 -71.3833 10° North 278 320 8,600 -1,100 Descending KA90
Sat 02:58:53 PM 42.8333 -71.3667 North 274 315 6,800 -1,895 Descending KA90
Sat 02:59:47 PM 42.9000 -71.3667 360° North 267 307 5,000 -947 Descending KA90
Sat 03:00:47 PM 42.9667 -71.3833 350° North 274 315 5,000  Level KA90
Sat 03:01:47 PM 43.0500 -71.3833 360° North 271 312 5,000  Level KA90
Sat 03:02:53 PM 43.1333 -71.3833 360° North 272 313 5,000  Level KA90
Sat 03:03:47 PM 43.2000 -71.3833 360° North 272 313 5,000  Level KA90
Sat 03:04:53 PM 43.2833 -71.4000 352° North 272 313 5,000  Level KA90
Sat 03:05:47 PM 43.3500 -71.4000 360° North 271 312 5,000 -444 Level KA90
Sat 03:06:41 PM 43.4167 -71.4000 360° North 271 312 4,200 -1,400 Descending KA90
Sat 03:07:47 PM 43.5000 -71.4000 360° North 267 307 2,200 -1,000 Descending KA90
Sat 03:08:47 PM 43.5667 -71.4167 350° North 258 297 2,100 -48 Descending KA90
Sat 03:09:53 PM 43.6500 -71.4167 360° North 260 299 2,100  Level KA90
Sat 03:10:48 PM 43.6667 -71.3833 55° Northeast 264 304 2,100 -45 Level KA90
Sat 03:12:05 PM 43.6167 -71.3000 130° Southeast 178 205 2,000 -45 Descending KA90
Sat 03:13:00 PM 43.6167 -71.3000 180° South 178 205 2,000  Level KA90

Login

Don't have an account? Register now (free) for customized features, flight alerts, and more!